Time;durP1;ratioP1;P1;durP2;ratioP2;P2;SDS_P1;SDS_P2;PMS_P1;PMS_P2;Temp;Humidity;BMP_temperature;BMP_pressure;BME280_temperature;BME280_humidity;BME280_pressure;Samples;Min_cycle;Max_cycle;Signal;HPM_P1;HPM_P2
2022/06/26 00:01:00;;;;;;;5.88;3.70;;;;;;;16.06;100.00;95283.81;5026313;28;20044;-77
2022/06/26 00:03:26;;;;;;;7.80;3.60;;;;;;;16.02;100.00;95293.47;5050679;28;20045;-78
2022/06/26 00:05:53;;;;;;;7.90;3.67;;;;;;;16.06;100.00;95278.50;5051638;28;20518;-77
2022/06/26 00:08:19;;;;;;;6.57;3.63;;;;;;;16.18;100.00;95280.53;5032497;28;20033;-77
2022/06/26 00:10:46;;;;;;;6.03;3.67;;;;;;;16.13;100.00;95287.88;5046000;28;20049;-78
2022/06/26 00:13:12;;;;;;;5.65;3.70;;;;;;;15.91;100.00;95292.19;5033298;28;20037;-78
2022/06/26 00:15:38;;;;;;;8.52;3.97;;;;;;;15.79;100.00;95281.38;5059607;28;20579;-77
2022/06/26 00:18:03;;;;;;;7.03;3.95;;;;;;;15.73;100.00;95297.44;5049759;28;20036;-77
2022/06/26 00:20:29;;;;;;;7.80;4.20;;;;;;;15.77;100.00;95302.88;5034714;28;20098;-77
2022/06/26 00:22:55;;;;;;;5.78;3.72;;;;;;;15.88;100.00;95306.09;5033569;28;20043;-77
2022/06/26 00:25:20;;;;;;;7.00;3.95;;;;;;;15.98;100.00;95302.38;5038340;28;20040;-78
2022/06/26 00:27:46;;;;;;;7.32;3.78;;;;;;;15.96;100.00;95297.38;5049017;28;20076;-77
2022/06/26 00:30:13;;;;;;;8.85;3.63;;;;;;;15.92;100.00;95304.38;5033252;28;20446;-77
2022/06/26 00:32:39;;;;;;;9.57;3.70;;;;;;;15.84;100.00;95299.84;5032392;28;20505;-77
2022/06/26 00:35:05;;;;;;;4.95;3.40;;;;;;;15.91;100.00;95297.50;5033245;28;20049;-77
2022/06/26 00:37:31;;;;;;;7.15;3.60;;;;;;;15.85;100.00;95309.38;5041197;28;20041;-77
2022/06/26 00:39:56;;;;;;;8.35;3.90;;;;;;;15.89;100.00;95299.69;5044429;28;20522;-77
2022/06/26 00:42:22;;;;;;;7.78;3.55;;;;;;;15.82;100.00;95299.38;5045448;28;20037;-77
2022/06/26 00:44:47;;;;;;;8.30;3.88;;;;;;;15.72;100.00;95306.47;5049627;28;20035;-77
2022/06/26 00:47:12;;;;;;;6.53;3.80;;;;;;;15.73;100.00;95302.75;5049650;28;20395;-77
2022/06/26 00:49:38;;;;;;;11.43;4.13;;;;;;;15.77;100.00;95306.34;5027765;28;20117;-77
2022/06/26 00:52:04;;;;;;;5.35;3.67;;;;;;;15.59;100.00;95313.44;5040174;28;20052;-77
2022/06/26 00:54:30;;;;;;;9.90;4.00;;;;;;;15.58;100.00;95308.44;5050384;28;20052;-77
2022/06/26 00:56:56;;;;;;;4.82;3.35;;;;;;;15.58;100.00;95311.09;5031771;28;20037;-78
2022/06/26 00:59:24;;;;;;;6.50;3.88;;;;;;;15.62;100.00;95306.75;5056641;28;20036;-78
2022/06/26 01:01:50;;;;;;;8.00;3.53;;;;;;;15.60;100.00;95306.25;5032796;28;20045;-77
2022/06/26 01:04:16;;;;;;;6.72;3.67;;;;;;;15.40;100.00;95311.03;5039710;28;20044;-77
2022/06/26 01:06:42;;;;;;;9.90;3.70;;;;;;;15.45;100.00;95311.97;5045276;28;20063;-77
2022/06/26 01:09:10;;;;;;;6.30;3.80;;;;;;;15.68;100.00;95316.13;5048876;28;20041;-77
2022/06/26 01:11:37;;;;;;;7.57;4.10;;;;;;;15.85;100.00;95314.66;5048584;28;20036;-77
2022/06/26 01:14:03;;;;;;;7.82;3.85;;;;;;;15.80;100.00;95306.84;5049761;28;20041;-76
2022/06/26 01:16:29;;;;;;;9.25;4.30;;;;;;;15.87;100.00;95304.50;5033071;28;20045;-77
2022/06/26 01:18:56;;;;;;;6.90;3.60;;;;;;;15.73;100.00;95300.09;5047593;28;20080;-77
2022/06/26 01:21:23;;;;;;;8.38;3.72;;;;;;;15.76;100.00;95304.78;5031620;28;20047;-76
2022/06/26 01:23:50;;;;;;;5.95;3.45;;;;;;;15.81;100.00;95314.47;5059984;28;20036;-76
2022/06/26 01:26:17;;;;;;;5.80;3.47;;;;;;;15.79;100.00;95313.22;5043659;28;20048;-76
2022/06/26 01:28:43;;;;;;;6.60;3.88;;;;;;;15.81;100.00;95319.03;5045100;28;20073;-77
2022/06/26 01:31:08;;;;;;;8.95;3.90;;;;;;;15.68;100.00;95313.47;5062087;28;20478;-77
2022/06/26 01:33:37;;;;;;;6.88;3.63;;;;;;;15.75;100.00;95316.47;5057868;28;20053;-76
2022/06/26 01:36:04;;;;;;;5.90;3.90;;;;;;;15.90;100.00;95317.16;5050032;28;20037;-76
2022/06/26 01:38:30;;;;;;;8.93;4.13;;;;;;;15.82;100.00;95315.28;5032471;28;20041;-77
2022/06/26 01:40:56;;;;;;;6.93;4.15;;;;;;;15.79;100.00;95318.53;5038075;28;20093;-77
2022/06/26 01:43:31;;;;;;;6.30;3.97;;;;;;;15.68;100.00;95308.16;5030916;28;20033;-77
2022/06/26 01:45:57;;;;;;;8.73;4.88;;;;;;;15.60;100.00;95311.56;5050243;28;20406;-77
2022/06/26 01:48:26;;;;;;;8.20;4.28;;;;;;;15.58;100.00;95305.78;5053869;28;20076;-77
2022/06/26 01:50:54;;;;;;;8.27;3.92;;;;;;;15.64;100.00;95306.44;5052537;28;20071;-77
2022/06/26 01:53:21;;;;;;;5.50;3.78;;;;;;;15.75;100.00;95308.50;5039863;28;20097;-77
2022/06/26 01:55:47;;;;;;;6.78;3.80;;;;;;;15.80;100.00;95304.19;5035451;28;20049;-77
2022/06/26 01:58:13;;;;;;;6.90;4.10;;;;;;;15.73;100.00;95308.03;5044788;28;20566;-77
2022/06/26 02:00:41;;;;;;;7.07;4.00;;;;;;;15.74;100.00;95304.28;5035122;28;20087;-77
2022/06/26 02:03:07;;;;;;;8.13;4.05;;;;;;;15.77;100.00;95303.69;5064849;28;20060;-77
2022/06/26 02:05:34;;;;;;;8.13;4.40;;;;;;;15.75;100.00;95311.16;5051771;28;20044;-76
2022/06/26 02:07:59;;;;;;;7.18;4.07;;;;;;;15.82;100.00;95299.38;5051607;28;20045;-76
2022/06/26 02:15:55;;;;;;;8.82;4.50;;;;;;;15.77;100.00;95302.88;5053172;28;19986;-77
2022/06/26 02:18:20;;;;;;;6.72;4.20;;;;;;;15.81;100.00;95300.44;5034864;28;20044;-76
2022/06/26 02:20:46;;;;;;;7.57;4.30;;;;;;;15.77;100.00;95308.19;5049951;28;20037;-77
2022/06/26 02:23:12;;;;;;;6.05;3.80;;;;;;;15.74;100.00;95314.91;5031379;28;20038;-76
2022/06/26 02:25:38;;;;;;;8.27;4.60;;;;;;;15.70;100.00;95321.94;5056716;28;20131;-77
2022/06/26 02:28:04;;;;;;;7.53;4.28;;;;;;;15.68;100.00;95313.47;5064007;28;20068;-77
2022/06/26 02:30:30;;;;;;;9.13;4.53;;;;;;;15.72;100.00;95322.38;5052191;28;20049;-76
2022/06/26 02:32:56;;;;;;;7.78;4.00;;;;;;;15.68;100.00;95337.34;5051554;28;20106;-76
2022/06/26 02:35:23;;;;;;;7.45;4.38;;;;;;;15.74;100.00;95346.72;5032590;28;20044;-77
2022/06/26 02:37:49;;;;;;;7.13;4.32;;;;;;;15.73;100.00;95344.38;5065175;28;20483;-77
2022/06/26 02:40:15;;;;;;;7.40;4.10;;;;;;;15.81;100.00;95340.25;5056495;28;20060;-76
2022/06/26 02:42:41;;;;;;;6.68;4.30;;;;;;;15.77;100.00;95327.56;5063433;28;20033;-76
2022/06/26 02:45:07;;;;;;;6.82;4.60;;;;;;;15.86;100.00;95332.13;5034178;28;20033;-77
2022/06/26 02:47:33;;;;;;;7.45;5.05;;;;;;;15.94;100.00;95355.28;5050088;28;20037;-77
2022/06/26 02:49:58;;;;;;;7.15;4.18;;;;;;;16.01;100.00;95350.31;5031992;28;20069;-76
2022/06/26 02:52:24;;;;;;;6.78;4.05;;;;;;;16.06;100.00;95363.44;5052178;28;20091;-77
2022/06/26 02:54:50;;;;;;;6.07;4.20;;;;;;;16.02;100.00;95373.09;5055690;28;20092;-77
2022/06/26 02:57:16;;;;;;;5.97;4.10;;;;;;;16.05;100.00;95383.09;5041708;28;20052;-77
2022/06/26 02:59:41;;;;;;;6.82;4.43;;;;;;;16.19;100.00;95387.50;5034049;28;20602;-77
2022/06/26 03:02:07;;;;;;;7.07;4.43;;;;;;;16.18;100.00;95380.66;5050191;28;20068;-76
2022/06/26 03:04:32;;;;;;;13.30;5.13;;;;;;;16.27;100.00;95389.41;5038230;28;20147;-77
2022/06/26 03:06:58;;;;;;;9.43;4.53;;;;;;;16.08;100.00;95387.78;5051815;28;20049;-77
2022/06/26 03:09:23;;;;;;;7.18;4.85;;;;;;;16.08;100.00;95395.75;5045787;28;20832;-77
2022/06/26 03:11:49;;;;;;;7.32;5.13;;;;;;;16.31;100.00;95405.53;5047159;28;20053;-77
2022/06/26 03:14:14;;;;;;;10.25;4.80;;;;;;;16.23;100.00;95404.41;5032517;28;20451;-76
2022/06/26 03:16:40;;;;;;;6.85;4.60;;;;;;;16.21;100.00;95411.91;5051049;28;20072;-76
2022/06/26 03:19:05;;;;;;;9.07;4.68;;;;;;;16.28;100.00;95406.91;5050458;28;20457;-77
2022/06/26 03:21:31;;;;;;;6.72;4.68;;;;;;;16.40;100.00;95393.81;5026610;28;20072;-77
2022/06/26 03:24:02;;;;;;;7.53;4.90;;;;;;;16.48;100.00;95410.06;5063334;28;20094;-76
2022/06/26 03:26:36;;;;;;;8.02;4.72;;;;;;;16.44;100.00;95400.06;5051045;28;20045;-77
2022/06/26 03:29:04;;;;;;;8.35;4.43;;;;;;;16.31;100.00;95390.38;5045245;28;20041;-77
2022/06/26 03:31:30;;;;;;;7.25;4.68;;;;;;;16.29;100.00;95397.84;5051582;28;20037;-77
2022/06/26 03:33:56;;;;;;;7.30;4.93;;;;;;;16.21;100.00;95398.63;5051852;28;20051;-77
2022/06/26 03:36:23;;;;;;;8.07;4.85;;;;;;;16.23;100.00;95404.41;5059996;28;20041;-76
2022/06/26 03:38:49;;;;;;;8.30;5.10;;;;;;;16.11;100.00;95413.72;5057013;28;20037;-76
2022/06/26 03:41:14;;;;;;;8.30;5.00;;;;;;;16.03;100.00;95411.84;5049477;28;20426;-77
2022/06/26 03:43:40;;;;;;;8.45;4.72;;;;;;;15.99;100.00;95416.19;5050625;28;20502;-77
2022/06/26 03:46:06;;;;;;;7.00;4.68;;;;;;;15.92;100.00;95410.53;5034416;28;20049;-77
2022/06/26 03:48:32;;;;;;;9.85;4.50;;;;;;;15.91;100.00;95416.91;5051215;28;20116;-76
2022/06/26 03:50:57;;;;;;;7.07;4.72;;;;;;;15.83;100.00;95418.47;5052426;28;20037;-77
2022/06/26 03:53:24;;;;;;;6.90;4.72;;;;;;;15.65;100.00;95422.84;5034819;28;20067;-76
2022/06/26 03:55:50;;;;;;;8.48;5.10;;;;;;;15.67;100.00;95428.63;5037537;28;20044;-76
2022/06/26 03:58:15;;;;;;;7.43;4.57;;;;;;;15.71;100.00;95416.31;5061580;28;20040;-76
2022/06/26 04:00:41;;;;;;;7.80;4.28;;;;;;;15.67;100.00;95425.97;5050511;28;20047;-76
2022/06/26 04:03:07;;;;;;;12.07;4.85;;;;;;;15.68;100.00;95427.53;5058324;28;20041;-76
2022/06/26 04:05:34;;;;;;;9.48;4.78;;;;;;;15.68;100.00;95432.84;5050613;28;20040;-76
2022/06/26 04:08:00;;;;;;;9.73;4.80;;;;;;;15.65;100.00;95433.47;5034100;28;20052;-77
2022/06/26 04:10:26;;;;;;;7.75;4.95;;;;;;;15.66;100.00;95440.34;5048759;28;20040;-76
2022/06/26 04:12:52;;;;;;;10.05;4.90;;;;;;;15.70;100.00;95430.69;5052012;28;20087;-76
2022/06/26 04:15:18;;;;;;;7.43;4.50;;;;;;;15.70;100.00;95433.34;5052702;28;20045;-77
2022/06/26 04:17:43;;;;;;;6.60;4.30;;;;;;;15.72;100.00;95433.03;5052324;28;20052;-76
2022/06/26 04:20:09;;;;;;;9.55;4.97;;;;;;;15.76;100.00;95440.06;5045328;28;20045;-76
2022/06/26 04:22:35;;;;;;;7.43;5.25;;;;;;;15.88;100.00;95430.81;5051441;28;20072;-76
2022/06/26 04:25:01;;;;;;;7.88;4.32;;;;;;;16.07;100.00;95434.00;5036309;28;20095;-76
2022/06/26 04:27:26;;;;;;;7.88;4.55;;;;;;;16.17;100.00;95432.19;5052210;28;20082;-76
2022/06/26 04:29:52;;;;;;;7.70;4.40;;;;;;;16.30;100.00;95439.25;5050132;28;20036;-77
2022/06/26 04:32:17;;;;;;;7.30;4.18;;;;;;;16.47;100.00;95435.09;5050796;28;20048;-76
2022/06/26 04:34:43;;;;;;;6.43;4.30;;;;;;;16.57;100.00;95440.13;5050799;28;20045;-76
2022/06/26 04:37:08;;;;;;;8.02;4.20;;;;;;;16.71;100.00;95450.63;5056487;28;20041;-76
2022/06/26 04:39:34;;;;;;;6.50;4.05;;;;;;;16.82;100.00;95445.78;5044994;28;20053;-75
2022/06/26 04:42:00;;;;;;;5.32;4.05;;;;;;;16.88;100.00;95444.56;5041462;28;20044;-76
2022/06/26 04:44:26;;;;;;;6.05;3.90;;;;;;;16.88;100.00;95439.25;5051958;28;20048;-76
2022/06/26 04:46:52;;;;;;;10.10;3.88;;;;;;;17.12;100.00;95439.59;5029465;28;20041;-76
2022/06/26 04:49:17;;;;;;;11.55;3.75;;;;;;;17.30;100.00;95439.59;5048390;28;20048;-76
2022/06/26 04:51:43;;;;;;;7.03;3.78;;;;;;;17.37;100.00;95439.91;5050396;28;20036;-76
2022/06/26 04:54:09;;;;;;;5.35;3.58;;;;;;;17.49;100.00;95442.69;5053836;28;20703;-76
2022/06/26 04:56:36;;;;;;;6.47;3.97;;;;;;;17.49;100.00;95442.69;5051796;28;20170;-76
2022/06/26 04:59:03;;;;;;;5.63;3.67;;;;;;;17.53;100.00;95442.06;5048182;28;20128;-76
2022/06/26 05:01:29;;;;;;;7.63;3.60;;;;;;;17.59;100.00;95451.47;5054389;28;20043;-77
2022/06/26 05:03:55;;;;;;;6.45;3.70;;;;;;;17.76;100.00;95446.09;5056502;28;20599;-76
2022/06/26 05:06:21;;;;;;;6.03;3.65;;;;;;;17.79;100.00;95439.38;5048731;28;20072;-76
2022/06/26 05:08:47;;;;;;;5.18;3.72;;;;;;;17.90;100.00;95445.94;5048751;28;20108;-76
2022/06/26 05:11:13;;;;;;;5.30;3.60;;;;;;;18.04;100.00;95451.06;5040528;28;20036;-76
2022/06/26 05:13:38;;;;;;;5.65;3.40;;;;;;;18.05;100.00;95436.66;5048654;28;20052;-77
2022/06/26 05:16:04;;;;;;;6.18;3.35;;;;;;;18.24;100.00;95443.47;5032868;28;20064;-76
2022/06/26 05:18:30;;;;;;;4.93;3.40;;;;;;;18.27;100.00;95437.50;5052339;28;20036;-76
2022/06/26 05:20:56;;;;;;;7.20;3.35;;;;;;;18.25;100.00;95445.03;5019928;28;20098;-76
2022/06/26 05:23:21;;;;;;;5.22;3.40;;;;;;;18.20;100.00;95443.31;5053564;28;20037;-76
2022/06/26 05:25:47;;;;;;;5.13;3.45;;;;;;;18.28;100.00;95444.41;5041230;28;20037;-76
2022/06/26 05:28:13;;;;;;;7.07;3.28;;;;;;;18.29;100.00;95435.31;5050732;28;20049;-76
2022/06/26 05:30:39;;;;;;;5.22;3.50;;;;;;;18.35;100.00;95434.81;5047740;28;20163;-75
2022/06/26 05:33:04;;;;;;;6.28;3.38;;;;;;;18.34;100.00;95437.78;5049240;28;20041;-76
2022/06/26 05:35:30;;;;;;;5.30;3.55;;;;;;;18.25;100.00;95439.72;5032823;28;20502;-77
2022/06/26 05:37:56;;;;;;;6.47;3.20;;;;;;;18.32;100.00;95437.34;5044783;28;20095;-76
2022/06/26 05:40:22;;;;;;;6.63;3.60;;;;;;;18.40;100.00;95441.81;5048822;28;20041;-77
2022/06/26 05:42:47;;;;;;;6.93;3.83;;;;;;;18.59;100.00;95443.31;5050693;28;20163;-77
2022/06/26 05:45:12;;;;;;;6.20;3.20;;;;;;;18.58;100.00;95447.09;5036971;28;20037;-76
2022/06/26 05:47:38;;;;;;;4.97;3.17;;;;;;;18.68;100.00;95446.72;5034331;28;20164;-76
2022/06/26 05:50:04;;;;;;;6.38;3.30;;;;;;;18.86;100.00;95442.88;5061807;28;20048;-76
2022/06/26 05:52:30;;;;;;;4.35;3.17;;;;;;;18.99;100.00;95450.94;5037626;28;20801;-76
2022/06/26 05:54:55;;;;;;;7.18;3.38;;;;;;;19.05;100.00;95438.97;5059435;28;20068;-76
2022/06/26 05:57:21;;;;;;;5.28;3.30;;;;;;;19.21;98.40;95442.59;5050115;28;20040;-76
2022/06/26 05:59:47;;;;;;;5.18;3.00;;;;;;;19.24;97.60;95445.72;5049067;28;20037;-78
2022/06/26 06:02:13;;;;;;;5.45;3.08;;;;;;;19.25;98.45;95444.63;5032218;28;20037;-77
2022/06/26 06:04:38;;;;;;;4.78;2.90;;;;;;;19.32;95.64;95439.53;5042201;28;20518;-76
2022/06/26 06:07:04;;;;;;;3.97;2.95;;;;;;;19.46;94.50;95441.94;5029631;28;20052;-77
2022/06/26 06:09:30;;;;;;;5.00;2.85;;;;;;;19.35;97.20;95434.34;5044699;28;20049;-77
2022/06/26 06:11:56;;;;;;;5.03;2.80;;;;;;;19.46;95.15;95442.72;5045633;28;20411;-78
2022/06/26 06:14:22;;;;;;;8.55;3.10;;;;;;;19.49;92.51;95447.38;5030262;28;20044;-77
2022/06/26 06:16:47;;;;;;;5.13;3.17;;;;;;;19.39;93.79;95442.47;5056023;28;20063;-77
2022/06/26 06:19:13;;;;;;;5.18;2.80;;;;;;;19.34;93.76;95445.34;5043387;28;20510;-77
2022/06/26 06:21:38;;;;;;;5.18;2.95;;;;;;;19.37;94.87;95442.00;5053158;28;20045;-77
2022/06/26 06:24:04;;;;;;;5.05;2.97;;;;;;;19.42;94.15;95452.47;5047709;28;20124;-80
2022/06/26 06:26:29;;;;;;;4.70;3.05;;;;;;;19.46;93.85;95441.94;5048859;28;20050;-81
2022/06/26 06:28:55;;;;;;;4.88;3.00;;;;;;;19.53;96.37;95452.88;5051920;28;20111;-77
2022/06/26 06:31:21;;;;;;;4.57;3.17;;;;;;;19.59;94.48;95445.44;5033898;28;20040;-78
2022/06/26 06:33:46;;;;;;;4.22;2.83;;;;;;;19.49;94.80;95451.94;5052332;28;20490;-79
2022/06/26 06:36:12;;;;;;;4.47;3.17;;;;;;;19.54;95.11;95449.88;5036592;28;20033;-78
2022/06/26 06:38:37;;;;;;;5.47;2.90;;;;;;;19.56;93.41;95452.97;5063792;28;20040;-78
2022/06/26 06:41:03;;;;;;;4.40;3.08;;;;;;;19.61;96.56;95456.56;5049536;28;20044;-78
2022/06/26 06:43:29;;;;;;;6.13;3.20;;;;;;;19.75;93.58;95443.69;5051930;28;20170;-79
2022/06/26 06:45:54;;;;;;;4.30;2.83;;;;;;;19.75;93.09;95454.38;5050667;28;20052;-79
2022/06/26 06:48:21;;;;;;;5.85;3.53;;;;;;;19.85;91.77;95456.66;5051787;28;20049;-78
2022/06/26 06:50:47;;;;;;;6.32;3.20;;;;;;;19.97;89.85;95457.78;5037555;28;20437;-79
2022/06/26 06:53:12;;;;;;;5.15;3.03;;;;;;;19.92;90.88;95458.03;5060003;28;20119;-79
2022/06/26 06:55:38;;;;;;;5.45;3.28;;;;;;;19.89;90.80;95454.88;5063683;28;20040;-77
2022/06/26 06:58:03;;;;;;;6.95;3.10;;;;;;;19.83;90.91;95456.22;5049446;28;20047;-79
2022/06/26 07:00:29;;;;;;;6.65;3.00;;;;;;;20.00;92.52;95449.13;5033725;28;20053;-81
2022/06/26 07:02:59;;;;;;;6.80;3.30;;;;;;;20.11;90.54;95455.59;5053415;28;20454;-80
2022/06/26 07:05:28;;;;;;;6.18;3.20;;;;;;;20.23;88.66;95457.53;5049063;28;20076;-83
2022/06/26 07:07:53;;;;;;;4.60;3.25;;;;;;;19.99;90.32;95450.25;5050277;28;20041;-83
2022/06/26 07:10:19;;;;;;;4.57;2.97;;;;;;;19.93;90.77;95443.56;5043491;28;20052;-77
2022/06/26 07:12:53;;;;;;;4.07;3.05;;;;;;;19.81;93.92;95442.44;5051781;28;20057;-84
2022/06/26 07:15:20;;;;;;;4.50;3.05;;;;;;;20.07;92.56;95449.38;5032462;28;20041;-81
2022/06/26 07:17:45;;;;;;;5.10;2.97;;;;;;;20.29;90.88;95437.47;5051707;28;20048;-78
2022/06/26 07:20:11;;;;;;;6.03;3.35;;;;;;;20.47;87.46;95435.34;5049338;28;20462;-78
2022/06/26 07:22:36;;;;;;;5.25;3.30;;;;;;;20.24;91.46;95443.81;5050908;28;20044;-78
2022/06/26 07:25:02;;;;;;;4.28;3.00;;;;;;;20.00;93.71;95438.47;5051148;28;20151;-78
2022/06/26 07:27:28;;;;;;;7.18;3.10;;;;;;;20.22;91.72;95440.69;5048118;28;20060;-78
2022/06/26 07:29:54;;;;;;;4.32;3.28;;;;;;;20.54;89.00;95438.28;5049776;28;20118;-85
2022/06/26 07:32:19;;;;;;;5.63;3.28;;;;;;;20.48;88.53;95436.91;5031801;28;20454;-79
2022/06/26 07:34:45;;;;;;;5.43;2.83;;;;;;;20.35;89.10;95427.34;5049106;28;20469;-79
2022/06/26 07:37:10;;;;;;;4.25;3.30;;;;;;;20.47;90.61;95440.69;5049440;28;20128;-84
2022/06/26 07:39:36;;;;;;;5.18;3.20;;;;;;;20.63;85.38;95437.34;5040811;28;20498;-83
2022/06/26 07:42:02;;;;;;;4.40;3.03;;;;;;;20.58;90.77;95435.69;5050550;28;20070;-81
2022/06/26 07:44:28;;;;;;;4.32;3.20;;;;;;;20.79;86.63;95443.63;5050042;28;20102;-81
2022/06/26 07:46:54;;;;;;;5.20;3.10;;;;;;;20.65;85.42;95437.81;5034060;28;20698;-81
2022/06/26 07:49:19;;;;;;;4.95;3.33;;;;;;;20.49;89.71;95438.47;5045083;28;20041;-80
2022/06/26 07:51:45;;;;;;;5.00;3.40;;;;;;;20.39;90.48;95433.59;5050087;28;20091;-86
2022/06/26 07:54:10;;;;;;;5.40;2.97;;;;;;;20.71;91.41;95433.81;5029222;28;20064;-79
2022/06/26 07:56:37;;;;;;;3.75;3.00;;;;;;;20.91;89.88;95432.88;5031245;28;20422;-79
2022/06/26 07:59:02;;;;;;;4.22;3.08;;;;;;;21.34;82.55;95427.22;5048333;28;20041;-78
2022/06/26 08:01:28;;;;;;;4.85;3.03;;;;;;;21.02;85.41;95427.88;5050000;28;20059;-80
2022/06/26 08:03:54;;;;;;;4.28;2.88;;;;;;;21.03;81.91;95423.28;5032225;28;20118;-80
2022/06/26 08:06:20;;;;;;;3.67;2.80;;;;;;;21.00;87.42;95426.63;5052578;28;20465;-79
2022/06/26 08:08:45;;;;;;;5.13;3.30;;;;;;;21.34;81.68;95416.50;5050915;28;20060;-77
2022/06/26 08:11:11;;;;;;;4.30;3.00;;;;;;;21.04;84.97;95424.84;5031997;28;20470;-80
2022/06/26 08:13:37;;;;;;;6.20;3.25;;;;;;;21.03;84.09;95417.94;5049727;28;20037;-80
2022/06/26 08:16:02;;;;;;;3.95;3.10;;;;;;;21.15;83.72;95420.59;5031108;28;20045;-81
2022/06/26 08:18:28;;;;;;;6.20;3.00;;;;;;;20.99;86.38;95411.69;5048811;28;20044;-83
2022/06/26 08:20:54;;;;;;;3.78;2.78;;;;;;;21.10;83.51;95412.78;5048558;28;20071;-81
2022/06/26 08:23:19;;;;;;;4.63;2.97;;;;;;;21.13;84.30;95412.09;5049246;28;20055;-82
2022/06/26 08:25:45;;;;;;;5.07;3.33;;;;;;;21.09;84.55;95406.66;5050125;28;20044;-82
2022/06/26 08:28:11;;;;;;;4.35;3.10;;;;;;;21.61;79.76;95405.03;5049659;28;20063;-78
2022/06/26 08:30:36;;;;;;;5.28;2.92;;;;;;;21.68;80.01;95403.63;5031571;28;20041;-80
2022/06/26 08:33:02;;;;;;;3.40;2.75;;;;;;;21.39;81.11;95402.84;5050372;28;20079;-81
2022/06/26 08:35:28;;;;;;;5.78;2.90;;;;;;;21.21;85.31;95403.16;5049145;28;20048;-81
2022/06/26 08:38:01;;;;;;;4.20;3.00;;;;;;;21.14;84.43;95372.75;5036229;22;20095;-81
2022/06/26 08:40:31;;;;;;;5.20;2.90;;;;;;;21.16;88.57;95392.72;5019270;28;20094;-83
2022/06/26 08:43:00;;;;;;;4.70;3.67;;;;;;;21.82;82.24;95404.00;5010402;28;20664;-79
2022/06/26 08:45:27;;;;;;;6.47;2.90;;;;;;;21.66;83.53;95401.31;5018347;28;20068;-80
2022/06/26 08:47:54;;;;;;;3.75;2.88;;;;;;;22.03;85.16;95403.00;5026071;28;20054;-80
2022/06/26 08:50:22;;;;;;;4.05;2.83;;;;;;;22.04;81.89;95399.19;5026472;28;20049;-80
2022/06/26 08:52:51;;;;;;;5.63;3.00;;;;;;;22.01;79.57;95399.88;5027262;28;20065;-80
2022/06/26 08:55:17;;;;;;;5.55;2.67;;;;;;;22.43;79.82;95394.00;5028476;28;20116;-80
2022/06/26 08:57:43;;;;;;;3.65;2.70;;;;;;;22.58;78.73;95405.81;5026637;28;20745;-80
2022/06/26 09:00:09;;;;;;;4.50;2.60;;;;;;;22.30;77.86;95402.13;5029619;28;20053;-83
2022/06/26 09:02:35;;;;;;;3.90;2.90;;;;;;;22.52;77.26;95402.63;5031232;28;20124;-80
2022/06/26 09:05:00;;;;;;;5.05;2.80;;;;;;;22.56;74.49;95408.84;5011005;28;20459;-78
2022/06/26 09:07:26;;;;;;;3.55;2.60;;;;;;;22.55;74.47;95399.25;5012007;28;20053;-79
2022/06/26 09:09:51;;;;;;;3.90;2.70;;;;;;;22.66;77.62;95397.59;5022425;28;20041;-79
2022/06/26 09:12:17;;;;;;;2.95;2.45;;;;;;;22.67;74.71;95399.16;5029576;28;20510;-78
2022/06/26 09:14:43;;;;;;;9.77;3.67;;;;;;;22.53;76.13;95395.34;5029080;28;20045;-80
2022/06/26 09:17:09;;;;;;;11.88;3.95;;;;;;;22.75;75.16;95400.06;5025118;28;20041;-80
2022/06/26 09:19:36;;;;;;;4.53;2.80;;;;;;;22.97;77.05;95390.59;5022312;28;20099;-78
2022/06/26 09:22:06;;;;;;;4.38;2.70;;;;;;;23.31;74.86;95398.16;5011534;28;20516;-78
2022/06/26 09:24:36;;;;;;;4.65;3.03;;;;;;;23.50;71.37;95394.69;5024673;28;20046;-85
2022/06/26 09:27:10;;;;;;;5.35;3.00;;;;;;;23.69;75.14;95402.72;5028718;28;20041;-82
2022/06/26 09:29:38;;;;;;;10.30;3.08;;;;;;;23.74;72.43;95398.94;5029993;28;20042;-79
2022/06/26 09:32:13;;;;;;;6.60;3.03;;;;;;;23.86;71.38;95392.63;5029059;28;20033;-81
2022/06/26 09:34:46;;;;;;;6.03;3.15;;;;;;;23.66;72.45;95397.25;5024855;28;20038;-80
2022/06/26 09:37:12;;;;;;;5.15;3.10;;;;;;;23.51;74.83;95388.19;5009187;28;20092;-80
2022/06/26 09:39:37;;;;;;;8.77;3.10;;;;;;;23.43;72.25;95383.81;5020974;28;20042;-84
2022/06/26 09:42:18;;;;;;;3.70;2.90;;;;;;;23.50;72.90;95383.94;5012655;28;20422;-80
2022/06/26 09:44:45;;;;;;;4.45;3.05;;;;;;;23.63;72.67;95382.66;5006166;28;20042;-85
2022/06/26 09:47:23;;;;;;;5.28;2.80;;;;;;;23.79;74.09;95389.81;5010845;28;20056;-81
2022/06/26 09:49:51;;;;;;;5.05;2.97;;;;;;;23.77;74.32;95384.03;5011455;28;20045;-79
2022/06/26 09:52:19;;;;;;;4.38;2.83;;;;;;;23.91;69.16;95376.25;5027533;28;20064;-80
2022/06/26 09:54:46;;;;;;;3.97;2.97;;;;;;;23.86;71.35;95384.56;5031767;28;20080;-82
2022/06/26 09:57:13;;;;;;;4.38;2.65;;;;;;;23.92;72.04;95388.56;5016198;28;20045;-80
2022/06/26 09:59:40;;;;;;;5.05;2.83;;;;;;;24.15;71.01;95382.38;5023570;28;20041;-80
2022/06/26 10:07:40;;;;;;;3.17;2.47;;;;;;;24.52;67.22;95365.63;5023259;28;20044;-82
2022/06/26 10:10:07;;;;;;;3.33;2.58;;;;;;;24.67;67.46;95370.09;5015647;28;20042;-78
2022/06/26 10:12:34;;;;;;;4.43;2.80;;;;;;;24.91;67.13;95370.78;5033513;28;20514;-80
2022/06/26 10:15:00;;;;;;;3.55;2.60;;;;;;;24.91;66.53;95365.41;5036815;28;20048;-80
2022/06/26 10:17:28;;;;;;;4.22;2.63;;;;;;;24.95;67.82;95366.22;5036802;28;20045;-80
2022/06/26 10:20:09;;;;;;;4.43;2.83;;;;;;;24.97;67.17;95358.56;5035238;28;20125;-81
2022/06/26 10:22:45;;;;;;;4.63;2.60;;;;;;;25.14;66.72;95356.44;5036222;28;20054;-80
2022/06/26 10:25:25;;;;;;;4.97;2.63;;;;;;;25.16;65.23;95359.56;5036086;28;20454;-81
2022/06/26 10:27:51;;;;;;;3.20;2.63;;;;;;;25.25;63.65;95362.72;5005628;28;20053;-80
2022/06/26 10:30:19;;;;;;;3.75;2.65;;;;;;;25.36;62.90;95352.88;5014449;28;20519;-81
2022/06/26 10:32:45;;;;;;;5.00;2.60;;;;;;;25.58;62.87;95369.25;5036730;28;20510;-79
2022/06/26 10:35:13;;;;;;;3.85;2.65;;;;;;;25.57;63.53;95356.94;5018841;28;20045;-80
2022/06/26 10:37:50;;;;;;;6.38;3.08;;;;;;;25.89;62.61;95362.63;5022381;28;20457;-77
2022/06/26 10:42:52;;;;;;;3.67;2.60;;;;;;;25.89;62.22;95356.47;5028026;28;20049;-77
2022/06/26 10:43:15;;;;;;;3.60;2.80;;;;;;;25.91;62.46;95360.31;5036171;28;20065;-80
2022/06/26 10:45:41;;;;;;;3.22;2.70;;;;;;;25.95;60.31;95349.56;5035317;28;20419;-77
2022/06/26 10:48:17;;;;;;;3.75;2.60;;;;;;;26.50;61.22;95345.38;5033609;28;20041;-79
2022/06/26 10:50:43;;;;;;;6.95;2.80;;;;;;;26.63;60.92;95354.69;5033678;28;20045;-78
2022/06/26 10:53:19;;;;;;;3.85;2.65;;;;;;;26.92;60.92;95344.84;5036675;28;20067;-76
2022/06/26 10:55:55;;;;;;;4.15;2.72;;;;;;;27.33;61.44;95346.50;5018411;28;20053;-78
2022/06/26 10:58:21;;;;;;;3.22;2.70;;;;;;;27.52;59.07;95342.72;5036293;28;20069;-78
2022/06/26 11:00:47;;;;;;;3.20;2.50;;;;;;;27.83;57.72;95345.84;5037318;28;20037;-78
2022/06/26 11:03:15;;;;;;;4.00;2.70;;;;;;;28.14;57.39;95344.34;5035643;28;20046;-79
2022/06/26 11:06:11;;;;;;;4.32;2.70;;;;;;;28.03;55.49;95335.47;5017388;28;20092;-78
2022/06/26 11:08:45;;;;;;;4.22;2.70;;;;;;;27.79;55.43;95340.44;5000514;28;20072;-79
2022/06/26 11:11:17;;;;;;;5.28;2.53;;;;;;;28.23;53.67;95329.63;5026003;28;20049;-78
2022/06/26 11:13:58;;;;;;;4.35;2.38;;;;;;;28.57;55.36;95332.66;5029688;28;20041;-78
2022/06/26 11:16:43;;;;;;;3.92;2.40;;;;;;;28.55;53.95;95336.91;5034333;28;20049;-80
2022/06/26 11:19:26;;;;;;;4.50;2.78;;;;;;;29.17;51.71;95336.34;5016460;28;20041;-78
2022/06/26 11:22:12;;;;;;;4.65;2.42;;;;;;;29.43;51.58;95331.59;5015371;28;20045;-76
2022/06/26 11:24:50;;;;;;;2.95;2.13;;;;;;;29.29;50.06;95337.09;5032191;28;20407;-79
2022/06/26 11:27:15;;;;;;;4.13;2.33;;;;;;;29.44;50.82;95333.13;5030118;28;20091;-90
2022/06/26 11:29:41;;;;;;;3.80;2.55;;;;;;;29.01;49.48;95333.31;5024600;28;20057;-79
2022/06/26 11:32:07;;;;;;;3.72;2.15;;;;;;;29.24;50.66;95329.34;5104421;22;20055;-83
2022/06/26 11:34:33;;;;;;;4.43;2.33;;;;;;;29.86;49.23;95325.13;5052628;28;20495;-81
2022/06/26 11:37:00;;;;;;;3.10;2.17;;;;;;;30.87;47.73;95327.63;5021119;28;20045;-82
2022/06/26 11:39:45;;;;;;;2.10;1.90;;;;;;;32.22;42.40;95330.84;5028840;28;20049;-81